Town Center, New Jersey
Current Conditions -  °F | °C
As of 3:53 PM on Tuesday 25 Nov 2014 (Local Time) from KCDW Reporting Station
Clear Clear  
Wind Chill: 52°   Ceiling: Unl
Heat Index: 52°   Visibility: 10mi
Dew Point: 27°   Wind: 5mph
Humidity: 38%   Direction: 250°WSW
Pressure: 30"   Gusts: NA
Location:  40.7895°N, 74.2629°W
Report Text: KCDW 252053Z 25004KT 10SM CLR 11/M03 A3000 RMK AO2 SLP165 T01111028 53002
Loading
Personal Weather Stations






























Interactive Weather Map New forecast layout! Learn more

10-Day Weather Forecast

Advertisements
Track Severe Weather on mobile